sensor_id;sensor_type;location;lat;lon;timestamp;P1;durP1;ratioP1;P2;durP2;ratioP2
26594;SDS011;14238;49.496;8.154;2023-09-07T00:01:45;5.13;;;4.83;;
26594;SDS011;14238;49.496;8.154;2023-09-07T00:04:10;5.73;;;5.33;;
26594;SDS011;14238;49.496;8.154;2023-09-07T00:06:39;7.30;;;6.63;;
26594;SDS011;14238;49.496;8.154;2023-09-07T00:09:07;5.67;;;5.27;;
26594;SDS011;14238;49.496;8.154;2023-09-07T00:11:33;9.57;;;5.37;;
26594;SDS011;14238;49.496;8.154;2023-09-07T00:13:58;6.03;;;5.43;;
26594;SDS011;14238;49.496;8.154;2023-09-07T00:16:24;5.00;;;4.70;;
26594;SDS011;14238;49.496;8.154;2023-09-07T00:18:50;5.97;;;5.40;;
26594;SDS011;14238;49.496;8.154;2023-09-07T00:21:16;5.73;;;5.43;;
26594;SDS011;14238;49.496;8.154;2023-09-07T00:23:41;5.93;;;5.50;;
26594;SDS011;14238;49.496;8.154;2023-09-07T00:26:07;5.63;;;5.27;;
26594;SDS011;14238;49.496;8.154;2023-09-07T00:28:33;6.30;;;5.80;;
26594;SDS011;14238;49.496;8.154;2023-09-07T00:30:58;5.70;;;5.30;;
26594;SDS011;14238;49.496;8.154;2023-09-07T00:33:24;6.10;;;5.50;;
26594;SDS011;14238;49.496;8.154;2023-09-07T00:35:49;5.90;;;5.30;;
26594;SDS011;14238;49.496;8.154;2023-09-07T00:38:15;5.57;;;5.20;;
26594;SDS011;14238;49.496;8.154;2023-09-07T00:40:44;5.67;;;5.17;;
26594;SDS011;14238;49.496;8.154;2023-09-07T00:43:10;5.70;;;5.27;;
26594;SDS011;14238;49.496;8.154;2023-09-07T00:45:36;5.33;;;4.80;;
26594;SDS011;14238;49.496;8.154;2023-09-07T00:48:03;6.43;;;5.77;;
26594;SDS011;14238;49.496;8.154;2023-09-07T00:50:29;5.80;;;5.40;;
26594;SDS011;14238;49.496;8.154;2023-09-07T00:52:54;6.47;;;5.50;;
26594;SDS011;14238;49.496;8.154;2023-09-07T00:55:20;5.70;;;5.30;;
26594;SDS011;14238;49.496;8.154;2023-09-07T00:57:47;5.63;;;5.23;;
26594;SDS011;14238;49.496;8.154;2023-09-07T01:00:13;5.70;;;5.30;;
26594;SDS011;14238;49.496;8.154;2023-09-07T01:02:39;5.83;;;5.50;;
26594;SDS011;14238;49.496;8.154;2023-09-07T01:05:04;5.87;;;5.47;;
26594;SDS011;14238;49.496;8.154;2023-09-07T01:09:59;5.43;;;5.03;;
26594;SDS011;14238;49.496;8.154;2023-09-07T01:12:27;5.67;;;5.20;;
26594;SDS011;14238;49.496;8.154;2023-09-07T01:14:53;6.90;;;6.20;;
26594;SDS011;14238;49.496;8.154;2023-09-07T01:17:19;5.83;;;5.37;;
26594;SDS011;14238;49.496;8.154;2023-09-07T01:19:46;6.00;;;5.50;;
26594;SDS011;14238;49.496;8.154;2023-09-07T01:22:18;6.27;;;5.77;;
26594;SDS011;14238;49.496;8.154;2023-09-07T01:24:44;6.63;;;6.07;;
26594;SDS011;14238;49.496;8.154;2023-09-07T01:27:11;6.17;;;5.77;;
26594;SDS011;14238;49.496;8.154;2023-09-07T01:29:38;6.57;;;5.97;;
26594;SDS011;14238;49.496;8.154;2023-09-07T01:32:04;5.77;;;5.37;;
26594;SDS011;14238;49.496;8.154;2023-09-07T01:34:30;6.20;;;5.70;;
26594;SDS011;14238;49.496;8.154;2023-09-07T01:36:56;6.03;;;5.63;;
26594;SDS011;14238;49.496;8.154;2023-09-07T01:39:22;6.40;;;5.77;;
26594;SDS011;14238;49.496;8.154;2023-09-07T01:41:47;6.40;;;5.90;;
26594;SDS011;14238;49.496;8.154;2023-09-07T01:44:13;6.57;;;6.07;;
26594;SDS011;14238;49.496;8.154;2023-09-07T01:46:39;6.20;;;5.80;;
26594;SDS011;14238;49.496;8.154;2023-09-07T01:49:04;6.77;;;6.20;;
26594;SDS011;14238;49.496;8.154;2023-09-07T01:51:30;6.97;;;6.47;;
26594;SDS011;14238;49.496;8.154;2023-09-07T01:53:55;6.90;;;5.47;;
26594;SDS011;14238;49.496;8.154;2023-09-07T01:56:21;6.23;;;5.83;;
26594;SDS011;14238;49.496;8.154;2023-09-07T01:58:46;6.40;;;5.93;;
26594;SDS011;14238;49.496;8.154;2023-09-07T02:01:23;6.57;;;6.07;;
26594;SDS011;14238;49.496;8.154;2023-09-07T02:03:50;6.37;;;5.83;;
26594;SDS011;14238;49.496;8.154;2023-09-07T02:06:16;7.03;;;6.43;;
26594;SDS011;14238;49.496;8.154;2023-09-07T02:08:42;7.93;;;6.00;;
26594;SDS011;14238;49.496;8.154;2023-09-07T02:11:07;6.83;;;6.40;;
26594;SDS011;14238;49.496;8.154;2023-09-07T02:13:33;6.47;;;6.00;;
26594;SDS011;14238;49.496;8.154;2023-09-07T02:16:02;7.03;;;5.50;;
26594;SDS011;14238;49.496;8.154;2023-09-07T02:18:29;6.43;;;5.83;;
26594;SDS011;14238;49.496;8.154;2023-09-07T02:20:54;6.40;;;6.00;;
26594;SDS011;14238;49.496;8.154;2023-09-07T02:23:32;7.27;;;6.67;;
26594;SDS011;14238;49.496;8.154;2023-09-07T02:25:58;6.70;;;6.20;;
26594;SDS011;14238;49.496;8.154;2023-09-07T02:28:24;6.40;;;6.00;;
26594;SDS011;14238;49.496;8.154;2023-09-07T02:30:51;6.67;;;5.40;;
26594;SDS011;14238;49.496;8.154;2023-09-07T02:33:16;5.70;;;5.40;;
26594;SDS011;14238;49.496;8.154;2023-09-07T02:35:42;6.87;;;6.37;;
26594;SDS011;14238;49.496;8.154;2023-09-07T02:38:08;7.17;;;6.73;;
26594;SDS011;14238;49.496;8.154;2023-09-07T02:40:43;7.10;;;6.60;;
26594;SDS011;14238;49.496;8.154;2023-09-07T02:43:12;7.20;;;6.67;;
26594;SDS011;14238;49.496;8.154;2023-09-07T02:45:38;6.47;;;5.97;;
26594;SDS011;14238;49.496;8.154;2023-09-07T02:48:04;9.20;;;6.53;;
26594;SDS011;14238;49.496;8.154;2023-09-07T02:50:31;7.10;;;6.60;;
26594;SDS011;14238;49.496;8.154;2023-09-07T02:52:58;9.50;;;7.00;;
26594;SDS011;14238;49.496;8.154;2023-09-07T02:55:25;6.37;;;5.97;;
26594;SDS011;14238;49.496;8.154;2023-09-07T02:57:53;6.53;;;6.13;;
26594;SDS011;14238;49.496;8.154;2023-09-07T03:00:21;6.60;;;6.00;;
26594;SDS011;14238;49.496;8.154;2023-09-07T03:02:47;6.80;;;6.20;;
26594;SDS011;14238;49.496;8.154;2023-09-07T03:05:13;6.50;;;5.50;;
26594;SDS011;14238;49.496;8.154;2023-09-07T03:07:46;8.37;;;6.27;;
26594;SDS011;14238;49.496;8.154;2023-09-07T03:10:12;7.10;;;6.50;;
26594;SDS011;14238;49.496;8.154;2023-09-07T03:12:38;6.97;;;6.37;;
26594;SDS011;14238;49.496;8.154;2023-09-07T03:15:04;6.70;;;6.20;;
26594;SDS011;14238;49.496;8.154;2023-09-07T03:17:31;6.80;;;6.30;;
26594;SDS011;14238;49.496;8.154;2023-09-07T03:19:57;7.10;;;6.50;;
26594;SDS011;14238;49.496;8.154;2023-09-07T03:22:22;6.80;;;6.40;;
26594;SDS011;14238;49.496;8.154;2023-09-07T03:24:51;6.23;;;5.73;;
26594;SDS011;14238;49.496;8.154;2023-09-07T03:27:17;6.40;;;6.00;;
26594;SDS011;14238;49.496;8.154;2023-09-07T03:29:46;6.20;;;5.70;;
26594;SDS011;14238;49.496;8.154;2023-09-07T03:32:11;6.23;;;5.83;;
26594;SDS011;14238;49.496;8.154;2023-09-07T03:34:37;6.30;;;5.90;;
26594;SDS011;14238;49.496;8.154;2023-09-07T03:37:03;6.00;;;5.60;;
26594;SDS011;14238;49.496;8.154;2023-09-07T03:39:31;6.00;;;5.60;;
26594;SDS011;14238;49.496;8.154;2023-09-07T03:41:57;6.20;;;5.70;;
26594;SDS011;14238;49.496;8.154;2023-09-07T03:44:22;7.00;;;6.57;;
26594;SDS011;14238;49.496;8.154;2023-09-07T03:46:48;7.70;;;7.00;;
26594;SDS011;14238;49.496;8.154;2023-09-07T03:49:13;7.20;;;6.70;;
26594;SDS011;14238;49.496;8.154;2023-09-07T03:51:39;6.80;;;6.37;;
26594;SDS011;14238;49.496;8.154;2023-09-07T03:54:04;6.97;;;6.47;;
26594;SDS011;14238;49.496;8.154;2023-09-07T03:56:30;7.50;;;6.90;;
26594;SDS011;14238;49.496;8.154;2023-09-07T03:58:55;6.87;;;6.37;;
26594;SDS011;14238;49.496;8.154;2023-09-07T04:01:21;7.43;;;6.57;;
26594;SDS011;14238;49.496;8.154;2023-09-07T04:03:46;7.57;;;6.77;;
26594;SDS011;14238;49.496;8.154;2023-09-07T04:06:12;7.23;;;6.73;;
26594;SDS011;14238;49.496;8.154;2023-09-07T04:08:37;6.43;;;6.03;;
26594;SDS011;14238;49.496;8.154;2023-09-07T04:11:03;6.40;;;6.00;;
26594;SDS011;14238;49.496;8.154;2023-09-07T04:13:30;7.10;;;6.60;;
26594;SDS011;14238;49.496;8.154;2023-09-07T04:15:56;6.90;;;6.40;;
26594;SDS011;14238;49.496;8.154;2023-09-07T04:18:21;7.00;;;6.50;;
26594;SDS011;14238;49.496;8.154;2023-09-07T04:20:47;7.27;;;6.77;;
26594;SDS011;14238;49.496;8.154;2023-09-07T04:23:12;6.87;;;6.37;;
26594;SDS011;14238;49.496;8.154;2023-09-07T04:25:38;7.63;;;7.00;;
26594;SDS011;14238;49.496;8.154;2023-09-07T04:28:04;7.63;;;7.00;;
26594;SDS011;14238;49.496;8.154;2023-09-07T04:30:30;7.50;;;6.90;;
26594;SDS011;14238;49.496;8.154;2023-09-07T04:32:56;9.10;;;6.60;;
26594;SDS011;14238;49.496;8.154;2023-09-07T04:35:27;6.60;;;6.20;;
26594;SDS011;14238;49.496;8.154;2023-09-07T04:37:55;7.60;;;7.00;;
26594;SDS011;14238;49.496;8.154;2023-09-07T04:40:21;6.93;;;6.37;;
26594;SDS011;14238;49.496;8.154;2023-09-07T04:42:47;7.00;;;6.40;;
26594;SDS011;14238;49.496;8.154;2023-09-07T04:45:12;7.20;;;6.70;;
26594;SDS011;14238;49.496;8.154;2023-09-07T04:47:38;7.03;;;6.53;;
26594;SDS011;14238;49.496;8.154;2023-09-07T04:50:04;6.20;;;5.80;;
26594;SDS011;14238;49.496;8.154;2023-09-07T04:52:31;6.47;;;6.07;;
26594;SDS011;14238;49.496;8.154;2023-09-07T04:54:56;7.10;;;6.50;;
26594;SDS011;14238;49.496;8.154;2023-09-07T04:57:22;7.10;;;6.60;;
26594;SDS011;14238;49.496;8.154;2023-09-07T04:59:47;7.77;;;6.90;;
26594;SDS011;14238;49.496;8.154;2023-09-07T05:02:13;7.70;;;7.20;;
26594;SDS011;14238;49.496;8.154;2023-09-07T05:04:38;7.07;;;6.50;;
26594;SDS011;14238;49.496;8.154;2023-09-07T05:07:04;7.10;;;6.60;;
26594;SDS011;14238;49.496;8.154;2023-09-07T05:09:29;7.80;;;7.20;;
26594;SDS011;14238;49.496;8.154;2023-09-07T05:11:56;7.53;;;6.90;;
26594;SDS011;14238;49.496;8.154;2023-09-07T05:14:22;7.63;;;7.13;;
26594;SDS011;14238;49.496;8.154;2023-09-07T05:16:49;8.20;;;7.50;;
26594;SDS011;14238;49.496;8.154;2023-09-07T05:19:15;6.80;;;6.30;;
26594;SDS011;14238;49.496;8.154;2023-09-07T05:21:40;8.70;;;6.43;;
26594;SDS011;14238;49.496;8.154;2023-09-07T05:24:06;7.60;;;6.40;;
26594;SDS011;14238;49.496;8.154;2023-09-07T05:26:32;7.53;;;6.87;;
26594;SDS011;14238;49.496;8.154;2023-09-07T05:28:57;7.33;;;6.73;;
26594;SDS011;14238;49.496;8.154;2023-09-07T05:31:23;8.73;;;7.60;;
26594;SDS011;14238;49.496;8.154;2023-09-07T05:33:48;7.63;;;7.00;;
26594;SDS011;14238;49.496;8.154;2023-09-07T05:36:14;8.00;;;7.40;;
26594;SDS011;14238;49.496;8.154;2023-09-07T05:38:39;7.27;;;6.80;;
26594;SDS011;14238;49.496;8.154;2023-09-07T05:41:05;7.47;;;6.97;;
26594;SDS011;14238;49.496;8.154;2023-09-07T05:43:32;7.87;;;7.20;;
26594;SDS011;14238;49.496;8.154;2023-09-07T05:45:57;7.50;;;6.90;;
26594;SDS011;14238;49.496;8.154;2023-09-07T05:48:23;7.77;;;7.27;;
26594;SDS011;14238;49.496;8.154;2023-09-07T05:50:49;7.30;;;6.60;;
26594;SDS011;14238;49.496;8.154;2023-09-07T05:53:14;7.50;;;6.80;;
26594;SDS011;14238;49.496;8.154;2023-09-07T05:55:40;7.10;;;6.50;;
26594;SDS011;14238;49.496;8.154;2023-09-07T05:58:06;6.50;;;6.10;;
26594;SDS011;14238;49.496;8.154;2023-09-07T06:00:34;6.67;;;6.27;;
26594;SDS011;14238;49.496;8.154;2023-09-07T06:03:00;7.20;;;6.70;;
26594;SDS011;14238;49.496;8.154;2023-09-07T06:05:26;7.97;;;7.47;;
26594;SDS011;14238;49.496;8.154;2023-09-07T06:07:52;7.97;;;7.37;;
26594;SDS011;14238;49.496;8.154;2023-09-07T06:10:17;8.97;;;8.27;;
26594;SDS011;14238;49.496;8.154;2023-09-07T06:12:44;7.80;;;7.10;;
26594;SDS011;14238;49.496;8.154;2023-09-07T06:15:10;7.97;;;7.37;;
26594;SDS011;14238;49.496;8.154;2023-09-07T06:17:35;8.13;;;7.50;;
26594;SDS011;14238;49.496;8.154;2023-09-07T06:20:01;7.63;;;7.13;;
26594;SDS011;14238;49.496;8.154;2023-09-07T06:22:27;8.07;;;7.47;;
26594;SDS011;14238;49.496;8.154;2023-09-07T06:24:53;8.40;;;7.60;;
26594;SDS011;14238;49.496;8.154;2023-09-07T06:27:18;8.23;;;7.73;;
26594;SDS011;14238;49.496;8.154;2023-09-07T06:29:44;8.03;;;7.33;;
26594;SDS011;14238;49.496;8.154;2023-09-07T06:32:09;8.20;;;7.50;;
26594;SDS011;14238;49.496;8.154;2023-09-07T06:34:35;8.90;;;8.20;;
26594;SDS011;14238;49.496;8.154;2023-09-07T06:37:01;8.97;;;8.27;;
26594;SDS011;14238;49.496;8.154;2023-09-07T06:39:26;9.10;;;8.20;;
26594;SDS011;14238;49.496;8.154;2023-09-07T06:41:52;8.53;;;7.37;;
26594;SDS011;14238;49.496;8.154;2023-09-07T06:44:17;8.33;;;7.53;;
26594;SDS011;14238;49.496;8.154;2023-09-07T06:46:43;8.30;;;7.60;;
26594;SDS011;14238;49.496;8.154;2023-09-07T06:49:09;9.17;;;8.30;;
26594;SDS011;14238;49.496;8.154;2023-09-07T06:51:34;8.33;;;7.70;;
26594;SDS011;14238;49.496;8.154;2023-09-07T06:54:00;8.60;;;8.00;;
26594;SDS011;14238;49.496;8.154;2023-09-07T06:56:25;7.90;;;7.30;;
26594;SDS011;14238;49.496;8.154;2023-09-07T06:58:51;8.00;;;7.30;;
26594;SDS011;14238;49.496;8.154;2023-09-07T07:01:17;7.60;;;7.03;;
26594;SDS011;14238;49.496;8.154;2023-09-07T07:03:43;8.50;;;7.70;;
26594;SDS011;14238;49.496;8.154;2023-09-07T07:06:08;8.17;;;7.47;;
26594;SDS011;14238;49.496;8.154;2023-09-07T07:08:34;6.77;;;6.17;;
26594;SDS011;14238;49.496;8.154;2023-09-07T07:10:59;7.87;;;7.20;;
26594;SDS011;14238;49.496;8.154;2023-09-07T07:13:25;7.70;;;7.10;;
26594;SDS011;14238;49.496;8.154;2023-09-07T07:15:51;7.60;;;6.47;;
26594;SDS011;14238;49.496;8.154;2023-09-07T07:18:16;7.50;;;6.80;;
26594;SDS011;14238;49.496;8.154;2023-09-07T07:20:43;7.10;;;6.60;;
26594;SDS011;14238;49.496;8.154;2023-09-07T07:23:10;7.60;;;7.00;;
26594;SDS011;14238;49.496;8.154;2023-09-07T07:25:36;7.70;;;7.10;;
26594;SDS011;14238;49.496;8.154;2023-09-07T07:28:02;7.93;;;7.20;;
26594;SDS011;14238;49.496;8.154;2023-09-07T07:30:34;6.93;;;6.43;;
26594;SDS011;14238;49.496;8.154;2023-09-07T07:33:03;7.90;;;7.40;;
26594;SDS011;14238;49.496;8.154;2023-09-07T07:35:30;8.03;;;7.43;;
26594;SDS011;14238;49.496;8.154;2023-09-07T07:37:55;7.87;;;7.10;;
26594;SDS011;14238;49.496;8.154;2023-09-07T07:40:21;7.77;;;7.17;;
26594;SDS011;14238;49.496;8.154;2023-09-07T07:42:47;8.37;;;7.47;;
26594;SDS011;14238;49.496;8.154;2023-09-07T07:45:14;7.60;;;6.80;;
26594;SDS011;14238;49.496;8.154;2023-09-07T07:47:40;8.83;;;7.67;;
26594;SDS011;14238;49.496;8.154;2023-09-07T07:50:06;7.50;;;7.00;;
26594;SDS011;14238;49.496;8.154;2023-09-07T07:52:31;9.10;;;8.30;;
26594;SDS011;14238;49.496;8.154;2023-09-07T07:54:57;7.60;;;7.00;;
26594;SDS011;14238;49.496;8.154;2023-09-07T07:57:23;8.00;;;7.40;;
26594;SDS011;14238;49.496;8.154;2023-09-07T07:59:48;8.13;;;7.27;;
26594;SDS011;14238;49.496;8.154;2023-09-07T08:02:14;9.30;;;8.43;;
26594;SDS011;14238;49.496;8.154;2023-09-07T08:04:39;8.40;;;7.80;;
26594;SDS011;14238;49.496;8.154;2023-09-07T08:07:05;8.77;;;8.10;;
26594;SDS011;14238;49.496;8.154;2023-09-07T08:09:32;8.40;;;7.80;;
26594;SDS011;14238;49.496;8.154;2023-09-07T08:11:58;8.23;;;7.63;;
26594;SDS011;14238;49.496;8.154;2023-09-07T08:14:25;9.23;;;8.43;;
26594;SDS011;14238;49.496;8.154;2023-09-07T08:16:52;7.77;;;7.17;;
26594;SDS011;14238;49.496;8.154;2023-09-07T08:19:18;8.23;;;7.63;;
26594;SDS011;14238;49.496;8.154;2023-09-07T08:21:44;8.30;;;7.60;;
26594;SDS011;14238;49.496;8.154;2023-09-07T08:24:11;7.60;;;7.10;;
26594;SDS011;14238;49.496;8.154;2023-09-07T08:26:36;7.30;;;6.70;;
26594;SDS011;14238;49.496;8.154;2023-09-07T08:29:02;7.43;;;6.80;;
26594;SDS011;14238;49.496;8.154;2023-09-07T08:31:30;7.97;;;6.70;;
26594;SDS011;14238;49.496;8.154;2023-09-07T08:33:58;7.17;;;6.77;;
26594;SDS011;14238;49.496;8.154;2023-09-07T08:36:28;7.03;;;6.63;;
26594;SDS011;14238;49.496;8.154;2023-09-07T08:38:57;7.77;;;7.07;;
26594;SDS011;14238;49.496;8.154;2023-09-07T08:41:26;6.90;;;6.47;;
26594;SDS011;14238;49.496;8.154;2023-09-07T08:43:52;6.47;;;5.97;;
26594;SDS011;14238;49.496;8.154;2023-09-07T08:46:20;6.10;;;5.50;;
26594;SDS011;14238;49.496;8.154;2023-09-07T08:48:47;6.40;;;5.83;;
26594;SDS011;14238;49.496;8.154;2023-09-07T08:51:15;6.10;;;5.60;;
26594;SDS011;14238;49.496;8.154;2023-09-07T08:53:41;6.40;;;5.90;;
26594;SDS011;14238;49.496;8.154;2023-09-07T08:56:10;7.60;;;6.23;;
26594;SDS011;14238;49.496;8.154;2023-09-07T08:58:39;6.83;;;6.10;;
26594;SDS011;14238;49.496;8.154;2023-09-07T09:01:05;6.07;;;5.43;;
26594;SDS011;14238;49.496;8.154;2023-09-07T09:03:31;6.20;;;5.80;;
26594;SDS011;14238;49.496;8.154;2023-09-07T09:05:56;5.90;;;5.60;;
26594;SDS011;14238;49.496;8.154;2023-09-07T09:08:22;7.00;;;6.23;;
26594;SDS011;14238;49.496;8.154;2023-09-07T09:10:49;6.53;;;5.90;;
26594;SDS011;14238;49.496;8.154;2023-09-07T09:13:31;6.30;;;5.90;;
26594;SDS011;14238;49.496;8.154;2023-09-07T09:16:00;6.97;;;6.50;;
26594;SDS011;14238;49.496;8.154;2023-09-07T09:18:26;6.00;;;5.60;;
26594;SDS011;14238;49.496;8.154;2023-09-07T09:20:52;6.77;;;6.10;;
26594;SDS011;14238;49.496;8.154;2023-09-07T09:23:19;6.07;;;5.57;;
26594;SDS011;14238;49.496;8.154;2023-09-07T09:25:45;6.33;;;5.80;;
26594;SDS011;14238;49.496;8.154;2023-09-07T09:28:13;6.00;;;5.70;;
26594;SDS011;14238;49.496;8.154;2023-09-07T09:30:38;7.13;;;5.87;;
26594;SDS011;14238;49.496;8.154;2023-09-07T09:33:05;5.40;;;5.00;;
26594;SDS011;14238;49.496;8.154;2023-09-07T09:35:31;5.93;;;5.43;;
26594;SDS011;14238;49.496;8.154;2023-09-07T09:38:00;5.60;;;5.20;;
26594;SDS011;14238;49.496;8.154;2023-09-07T09:40:30;6.27;;;5.80;;
26594;SDS011;14238;49.496;8.154;2023-09-07T09:43:02;6.50;;;5.97;;
26594;SDS011;14238;49.496;8.154;2023-09-07T09:45:28;6.10;;;5.80;;
26594;SDS011;14238;49.496;8.154;2023-09-07T09:47:54;5.93;;;5.60;;
26594;SDS011;14238;49.496;8.154;2023-09-07T09:50:26;7.10;;;6.60;;
26594;SDS011;14238;49.496;8.154;2023-09-07T09:52:53;6.67;;;6.17;;
26594;SDS011;14238;49.496;8.154;2023-09-07T09:55:18;7.03;;;6.60;;
26594;SDS011;14238;49.496;8.154;2023-09-07T09:57:44;8.80;;;8.03;;
26594;SDS011;14238;49.496;8.154;2023-09-07T10:00:10;7.20;;;6.50;;
26594;SDS011;14238;49.496;8.154;2023-09-07T10:02:44;7.87;;;7.17;;
26594;SDS011;14238;49.496;8.154;2023-09-07T10:05:30;7.50;;;6.90;;
26594;SDS011;14238;49.496;8.154;2023-09-07T10:08:00;8.40;;;7.90;;
26594;SDS011;14238;49.496;8.154;2023-09-07T10:10:31;7.40;;;6.90;;
26594;SDS011;14238;49.496;8.154;2023-09-07T10:12:59;7.00;;;6.40;;
26594;SDS011;14238;49.496;8.154;2023-09-07T10:15:26;8.13;;;7.33;;
26594;SDS011;14238;49.496;8.154;2023-09-07T10:23:20;8.33;;;7.23;;
26594;SDS011;14238;49.496;8.154;2023-09-07T10:25:50;6.80;;;6.40;;
26594;SDS011;14238;49.496;8.154;2023-09-07T10:28:20;7.70;;;7.00;;
26594;SDS011;14238;49.496;8.154;2023-09-07T10:31:03;7.93;;;7.17;;
26594;SDS011;14238;49.496;8.154;2023-09-07T10:33:34;8.27;;;7.47;;
26594;SDS011;14238;49.496;8.154;2023-09-07T10:36:03;6.97;;;6.57;;
26594;SDS011;14238;49.496;8.154;2023-09-07T10:38:31;7.03;;;6.53;;
26594;SDS011;14238;49.496;8.154;2023-09-07T10:40:57;6.60;;;6.00;;
26594;SDS011;14238;49.496;8.154;2023-09-07T10:43:28;9.70;;;7.67;;
26594;SDS011;14238;49.496;8.154;2023-09-07T10:45:55;6.80;;;6.40;;
26594;SDS011;14238;49.496;8.154;2023-09-07T10:48:22;9.77;;;6.93;;
26594;SDS011;14238;49.496;8.154;2023-09-07T10:50:50;6.80;;;6.30;;
26594;SDS011;14238;49.496;8.154;2023-09-07T10:53:23;7.20;;;6.60;;
26594;SDS011;14238;49.496;8.154;2023-09-07T10:55:52;7.17;;;6.67;;
26594;SDS011;14238;49.496;8.154;2023-09-07T10:58:28;6.70;;;6.30;;
26594;SDS011;14238;49.496;8.154;2023-09-07T11:00:58;7.30;;;6.70;;
26594;SDS011;14238;49.496;8.154;2023-09-07T11:03:25;7.07;;;6.57;;
26594;SDS011;14238;49.496;8.154;2023-09-07T11:06:06;6.60;;;6.00;;
26594;SDS011;14238;49.496;8.154;2023-09-07T11:08:35;6.30;;;5.97;;
26594;SDS011;14238;49.496;8.154;2023-09-07T11:11:04;6.97;;;6.40;;
26594;SDS011;14238;49.496;8.154;2023-09-07T11:13:30;7.03;;;6.63;;
26594;SDS011;14238;49.496;8.154;2023-09-07T11:15:56;6.23;;;5.93;;
26594;SDS011;14238;49.496;8.154;2023-09-07T11:18:23;6.90;;;6.50;;
26594;SDS011;14238;49.496;8.154;2023-09-07T11:20:50;6.83;;;6.20;;
26594;SDS011;14238;49.496;8.154;2023-09-07T11:23:17;7.10;;;6.43;;
26594;SDS011;14238;49.496;8.154;2023-09-07T11:25:43;7.00;;;6.20;;
26594;SDS011;14238;49.496;8.154;2023-09-07T11:28:09;6.40;;;6.00;;
26594;SDS011;14238;49.496;8.154;2023-09-07T11:30:36;6.27;;;5.80;;
26594;SDS011;14238;49.496;8.154;2023-09-07T11:33:13;6.30;;;5.87;;
26594;SDS011;14238;49.496;8.154;2023-09-07T11:35:41;5.97;;;5.40;;
26594;SDS011;14238;49.496;8.154;2023-09-07T11:38:06;6.50;;;6.00;;
26594;SDS011;14238;49.496;8.154;2023-09-07T11:40:35;5.73;;;5.37;;
26594;SDS011;14238;49.496;8.154;2023-09-07T11:43:00;6.10;;;5.50;;
26594;SDS011;14238;49.496;8.154;2023-09-07T11:45:26;6.97;;;6.47;;
26594;SDS011;14238;49.496;8.154;2023-09-07T11:47:52;6.97;;;6.47;;
26594;SDS011;14238;49.496;8.154;2023-09-07T11:50:17;6.13;;;5.53;;
26594;SDS011;14238;49.496;8.154;2023-09-07T11:52:44;6.57;;;5.97;;
26594;SDS011;14238;49.496;8.154;2023-09-07T11:55:09;5.70;;;5.20;;
26594;SDS011;14238;49.496;8.154;2023-09-07T11:57:35;6.43;;;5.83;;
26594;SDS011;14238;49.496;8.154;2023-09-07T12:00:02;6.20;;;5.60;;
26594;SDS011;14238;49.496;8.154;2023-09-07T12:02:29;5.90;;;5.50;;
26594;SDS011;14238;49.496;8.154;2023-09-07T12:04:54;5.40;;;5.10;;
26594;SDS011;14238;49.496;8.154;2023-09-07T12:07:20;5.73;;;5.43;;
26594;SDS011;14238;49.496;8.154;2023-09-07T12:09:45;6.47;;;5.83;;
26594;SDS011;14238;49.496;8.154;2023-09-07T12:12:11;6.13;;;5.70;;
26594;SDS011;14238;49.496;8.154;2023-09-07T12:14:37;6.77;;;6.20;;
26594;SDS011;14238;49.496;8.154;2023-09-07T12:17:02;6.20;;;5.80;;
26594;SDS011;14238;49.496;8.154;2023-09-07T12:19:28;6.20;;;5.67;;
26594;SDS011;14238;49.496;8.154;2023-09-07T12:21:54;6.73;;;6.03;;
26594;SDS011;14238;49.496;8.154;2023-09-07T12:24:20;6.37;;;5.93;;
26594;SDS011;14238;49.496;8.154;2023-09-07T12:26:45;5.30;;;4.80;;
26594;SDS011;14238;49.496;8.154;2023-09-07T12:29:11;6.40;;;5.80;;
26594;SDS011;14238;49.496;8.154;2023-09-07T12:31:36;8.03;;;6.00;;
26594;SDS011;14238;49.496;8.154;2023-09-07T12:34:02;6.13;;;5.73;;
26594;SDS011;14238;49.496;8.154;2023-09-07T12:36:27;6.03;;;5.63;;
26594;SDS011;14238;49.496;8.154;2023-09-07T12:38:55;6.43;;;6.00;;
26594;SDS011;14238;49.496;8.154;2023-09-07T12:41:26;5.93;;;5.53;;
26594;SDS011;14238;49.496;8.154;2023-09-07T12:43:55;5.80;;;5.50;;
26594;SDS011;14238;49.496;8.154;2023-09-07T12:46:21;6.00;;;5.50;;
26594;SDS011;14238;49.496;8.154;2023-09-07T12:48:46;6.27;;;5.80;;
26594;SDS011;14238;49.496;8.154;2023-09-07T12:51:12;5.90;;;5.50;;
26594;SDS011;14238;49.496;8.154;2023-09-07T12:53:37;6.87;;;5.90;;
26594;SDS011;14238;49.496;8.154;2023-09-07T12:56:04;5.40;;;5.10;;
26594;SDS011;14238;49.496;8.154;2023-09-07T12:58:30;6.43;;;5.83;;
26594;SDS011;14238;49.496;8.154;2023-09-07T13:00:55;6.30;;;5.80;;
26594;SDS011;14238;49.496;8.154;2023-09-07T13:03:21;6.33;;;5.93;;
26594;SDS011;14238;49.496;8.154;2023-09-07T13:05:47;5.70;;;5.40;;
26594;SDS011;14238;49.496;8.154;2023-09-07T13:08:13;6.83;;;6.20;;
26594;SDS011;14238;49.496;8.154;2023-09-07T13:10:39;6.10;;;5.57;;
26594;SDS011;14238;49.496;8.154;2023-09-07T13:13:04;6.20;;;5.67;;
26594;SDS011;14238;49.496;8.154;2023-09-07T13:15:30;5.90;;;5.50;;
26594;SDS011;14238;49.496;8.154;2023-09-07T13:17:56;6.00;;;5.60;;
26594;SDS011;14238;49.496;8.154;2023-09-07T13:20:21;6.50;;;6.10;;
26594;SDS011;14238;49.496;8.154;2023-09-07T13:22:47;6.40;;;5.93;;
26594;SDS011;14238;49.496;8.154;2023-09-07T13:25:13;6.67;;;6.13;;
26594;SDS011;14238;49.496;8.154;2023-09-07T13:27:38;5.97;;;5.47;;
26594;SDS011;14238;49.496;8.154;2023-09-07T13:30:05;5.87;;;5.57;;
26594;SDS011;14238;49.496;8.154;2023-09-07T13:32:32;8.47;;;5.97;;
26594;SDS011;14238;49.496;8.154;2023-09-07T13:34:59;6.73;;;6.23;;
26594;SDS011;14238;49.496;8.154;2023-09-07T13:37:24;6.07;;;5.40;;
26594;SDS011;14238;49.496;8.154;2023-09-07T13:39:50;5.87;;;5.47;;
26594;SDS011;14238;49.496;8.154;2023-09-07T13:42:15;6.67;;;6.17;;
26594;SDS011;14238;49.496;8.154;2023-09-07T13:44:41;6.60;;;6.20;;
26594;SDS011;14238;49.496;8.154;2023-09-07T13:47:06;5.20;;;5.00;;
26594;SDS011;14238;49.496;8.154;2023-09-07T13:49:33;5.90;;;5.50;;
26594;SDS011;14238;49.496;8.154;2023-09-07T13:51:59;5.90;;;5.40;;
26594;SDS011;14238;49.496;8.154;2023-09-07T13:54:25;5.90;;;5.43;;
26594;SDS011;14238;49.496;8.154;2023-09-07T13:56:50;5.70;;;5.30;;
26594;SDS011;14238;49.496;8.154;2023-09-07T13:59:16;6.03;;;5.50;;
26594;SDS011;14238;49.496;8.154;2023-09-07T14:01:41;6.43;;;5.40;;
26594;SDS011;14238;49.496;8.154;2023-09-07T14:04:07;6.10;;;5.60;;
26594;SDS011;14238;49.496;8.154;2023-09-07T14:06:32;6.33;;;5.97;;
26594;SDS011;14238;49.496;8.154;2023-09-07T14:08:58;6.70;;;5.80;;
26594;SDS011;14238;49.496;8.154;2023-09-07T14:11:24;6.03;;;5.43;;
26594;SDS011;14238;49.496;8.154;2023-09-07T14:13:51;7.87;;;6.10;;
26594;SDS011;14238;49.496;8.154;2023-09-07T14:16:17;6.23;;;5.73;;
26594;SDS011;14238;49.496;8.154;2023-09-07T14:18:44;6.00;;;5.60;;
26594;SDS011;14238;49.496;8.154;2023-09-07T14:21:10;5.90;;;5.40;;
26594;SDS011;14238;49.496;8.154;2023-09-07T14:23:38;6.70;;;6.20;;
26594;SDS011;14238;49.496;8.154;2023-09-07T14:26:04;5.70;;;5.40;;
26594;SDS011;14238;49.496;8.154;2023-09-07T14:28:30;6.60;;;6.10;;
26594;SDS011;14238;49.496;8.154;2023-09-07T14:30:56;6.63;;;6.07;;
26594;SDS011;14238;49.496;8.154;2023-09-07T14:33:23;5.40;;;5.20;;
26594;SDS011;14238;49.496;8.154;2023-09-07T14:35:50;6.00;;;5.60;;
26594;SDS011;14238;49.496;8.154;2023-09-07T14:38:19;6.80;;;5.70;;
26594;SDS011;14238;49.496;8.154;2023-09-07T14:40:44;6.43;;;5.50;;
26594;SDS011;14238;49.496;8.154;2023-09-07T14:43:10;5.73;;;5.30;;
26594;SDS011;14238;49.496;8.154;2023-09-07T14:45:36;6.30;;;6.00;;
26594;SDS011;14238;49.496;8.154;2023-09-07T14:48:01;6.10;;;5.50;;
26594;SDS011;14238;49.496;8.154;2023-09-07T14:50:27;5.37;;;5.00;;
26594;SDS011;14238;49.496;8.154;2023-09-07T14:52:53;6.47;;;6.03;;